Time;durP1;ratioP1;P1;durP2;ratioP2;P2;SDS_P1;SDS_P2;PMS_P1;PMS_P2;Temp;Humidity;BMP_temperature;BMP_pressure;BME280_temperature;BME280_humidity;BME280_pressure;Samples;Min_cycle;Max_cycle;Signal;HPM_P1;HPM_P2
2022/05/18 00:00:35;;;;;;;0.10;0.10;;;13.70;99.90;;;;;;5039835;28;20650;-89
2022/05/18 00:03:07;;;;;;;0.10;0.10;;;13.70;99.90;;;;;;5033585;28;20488;-92
2022/05/18 00:05:39;;;;;;;0.10;0.10;;;13.70;99.90;;;;;;5055961;23;20527;-89
2022/05/18 00:08:05;;;;;;;0.10;0.10;;;13.70;99.90;;;;;;5049640;28;20548;-89
2022/05/18 00:10:32;;;;;;;0.10;0.10;;;13.70;99.90;;;;;;5031105;28;20449;-90
2022/05/18 00:12:58;;;;;;;0.10;0.10;;;13.70;99.90;;;;;;5054714;28;20448;-95
2022/05/18 00:15:33;;;;;;;0.10;0.10;;;13.70;99.90;;;;;;5042856;23;20497;-90
2022/05/18 00:17:59;;;;;;;0.20;0.20;;;13.70;99.90;;;;;;5059384;28;20182;-89
2022/05/18 00:20:25;;;;;;;0.10;0.10;;;13.60;99.90;;;;;;5056960;28;20453;-93
2022/05/18 00:22:58;;;;;;;0.10;0.10;;;13.60;99.90;;;;;;5036619;28;20607;-90
2022/05/18 00:25:26;;;;;;;0.10;0.10;;;13.60;99.90;;;;;;5059904;28;20434;-90
2022/05/18 00:28:12;;;;;;;0.10;0.10;;;13.50;99.90;;;;;;5056113;28;20963;-89
2022/05/18 00:30:41;;;;;;;0.10;0.10;;;13.50;99.90;;;;;;5057663;28;20433;-89
2022/05/18 00:33:10;;;;;;;0.20;0.20;;;13.50;99.90;;;;;;5040261;28;20449;-89
2022/05/18 00:35:37;;;;;;;0.10;0.10;;;13.50;99.90;;;;;;5071809;28;20509;-91
2022/05/18 00:38:04;;;;;;;0.20;0.20;;;13.50;99.90;;;;;;5030074;23;20587;-91
2022/05/18 00:40:42;;;;;;;0.20;0.20;;;13.50;99.90;;;;;;4979554;28;21320;-90
2022/05/18 00:43:38;;;;;;;0.20;0.20;;;13.50;99.90;;;;;;4991676;28;20421;-90
2022/05/18 00:48:43;;;;;;;0.20;0.20;;;13.50;99.90;;;;;;5053705;22;20477;-92
2022/05/18 00:51:20;;;;;;;0.10;0.10;;;13.50;99.90;;;;;;5028947;28;20429;-89
2022/05/18 00:53:53;;;;;;;0.10;0.10;;;13.50;99.90;;;;;;5014580;28;20494;-89
2022/05/18 00:56:31;;;;;;;0.20;0.20;;;13.50;99.90;;;;;;5048356;22;20502;-89
2022/05/18 00:59:05;;;;;;;0.20;0.20;;;13.50;99.90;;;;;;5071154;28;20491;-89
2022/05/18 01:01:31;;;;;;;0.10;0.10;;;13.50;99.90;;;;;;5075565;28;20490;-92
2022/05/18 01:03:57;;;;;;;0.13;0.13;;;13.40;99.90;;;;;;5067405;28;20528;-89
2022/05/18 01:07:00;;;;;;;0.10;0.10;;;13.40;99.90;;;;;;5013053;23;20274;-88
2022/05/18 01:09:33;;;;;;;0.10;0.10;;;13.30;99.90;;;;;;4999775;28;20447;-95
2022/05/18 01:11:59;;;;;;;0.10;0.10;;;13.40;99.90;;;;;;5007942;28;20440;-87
2022/05/18 01:14:47;;;;;;;0.10;0.10;;;13.30;99.90;;;;;;5000433;28;20538;-87
2022/05/18 01:17:16;;;;;;;0.20;0.20;;;13.30;99.90;;;;;;5015788;28;20451;-91
2022/05/18 01:19:44;;;;;;;0.10;0.10;;;13.30;99.90;;;;;;4992086;28;21003;-91
2022/05/18 01:22:44;;;;;;;0.10;0.10;;;13.30;99.90;;;;;;5029089;23;20505;-88
2022/05/18 01:25:18;;;;;;;0.10;0.10;;;13.20;99.90;;;;;;5039530;28;20490;-87
2022/05/18 01:27:44;;;;;;;0.10;0.10;;;13.20;99.90;;;;;;5039497;28;20460;-88
2022/05/18 01:30:19;;;;;;;0.10;0.10;;;13.20;99.90;;;;;;5038268;28;20818;-88
2022/05/18 01:32:49;;;;;;;0.10;0.10;;;13.00;99.90;;;;;;5035743;28;20457;-85
2022/05/18 01:35:18;;;;;;;0.20;0.20;;;13.10;99.90;;;;;;5034305;28;20524;-90
2022/05/18 01:37:43;;;;;;;0.10;0.10;;;13.10;99.90;;;;;;5040427;28;20508;-89
2022/05/18 01:40:23;;;;;;;0.20;0.20;;;13.10;99.90;;;;;;5056255;23;21031;-96
2022/05/18 01:42:59;;;;;;;0.10;0.10;;;13.00;99.90;;;;;;5080996;28;20209;-95
2022/05/18 01:45:25;;;;;;;0.20;0.20;;;13.00;99.90;;;;;;5077497;28;20443;-90
2022/05/18 01:47:51;;;;;;;0.20;0.20;;;13.00;99.90;;;;;;5061505;28;20460;-91
2022/05/18 01:50:29;;;;;;;0.20;0.20;;;13.00;99.90;;;;;;5062597;23;20499;-91
2022/05/18 01:53:15;;;;;;;0.20;0.20;;;13.00;99.90;;;;;;5077345;22;20296;-93
2022/05/18 01:55:40;;;;;;;0.20;0.20;;;13.00;99.90;;;;;;5023573;28;20465;-86
2022/05/18 01:58:09;;;;;;;0.10;0.10;;;13.00;99.90;;;;;;5025805;23;20475;-89
2022/05/18 02:01:05;;;;;;;0.20;0.20;;;12.90;99.90;;;;;;5018347;28;20241;-88
2022/05/18 02:03:30;;;;;;;0.20;0.20;;;12.90;99.90;;;;;;5029564;28;20462;-87
2022/05/18 02:05:56;;;;;;;0.13;0.13;;;12.90;99.90;;;;;;5039883;28;20789;-90
2022/05/18 02:08:22;;;;;;;0.20;0.20;;;12.90;99.90;;;;;;5062027;22;20327;-86
2022/05/18 02:10:58;;;;;;;0.20;0.20;;;12.90;99.90;;;;;;5057641;28;20257;-88
2022/05/18 02:13:23;;;;;;;0.20;0.20;;;12.90;99.90;;;;;;5038458;28;20423;-87
2022/05/18 02:15:49;;;;;;;0.20;0.20;;;12.90;99.90;;;;;;5064374;22;21111;-89
2022/05/18 02:18:15;;;;;;;0.20;0.20;;;12.90;99.90;;;;;;5041491;28;20191;-85
2022/05/18 02:20:41;;;;;;;0.20;0.20;;;12.80;99.90;;;;;;5056860;28;20739;-88
2022/05/18 02:23:07;;;;;;;0.10;0.10;;;12.80;99.90;;;;;;5035441;28;20180;-87
2022/05/18 02:25:33;;;;;;;0.20;0.20;;;12.80;99.90;;;;;;5054630;28;20536;-89
2022/05/18 02:28:00;;;;;;;0.20;0.20;;;12.80;99.90;;;;;;5057742;28;20477;-89
2022/05/18 02:30:26;;;;;;;0.20;0.20;;;12.80;99.90;;;;;;5055455;28;20246;-87
2022/05/18 02:32:52;;;;;;;0.20;0.20;;;12.90;99.90;;;;;;5059279;22;20446;-87
2022/05/18 02:35:17;;;;;;;0.20;0.20;;;12.90;99.90;;;;;;5032632;28;20231;-90
2022/05/18 02:37:43;;;;;;;0.20;0.20;;;12.80;99.90;;;;;;5031086;28;20699;-87
2022/05/18 02:40:21;;;;;;;0.20;0.20;;;12.80;99.90;;;;;;5034394;28;20270;-86
2022/05/18 02:42:46;;;;;;;0.20;0.20;;;12.80;99.90;;;;;;5042544;23;20234;-88
2022/05/18 02:45:12;;;;;;;0.20;0.20;;;12.70;99.90;;;;;;5017999;28;20450;-86
2022/05/18 02:47:38;;;;;;;0.20;0.20;;;12.70;99.90;;;;;;5032794;28;20588;-90
2022/05/18 02:50:05;;;;;;;0.20;0.20;;;12.70;99.90;;;;;;5032994;28;20180;-88
2022/05/18 02:57:46;;;;;;;0.20;0.20;;;12.70;99.90;;;;;;5045606;22;20217;-86
2022/05/18 03:00:13;;;;;;;0.20;0.20;;;12.80;99.90;;;;;;5077221;22;20503;-88
2022/05/18 03:02:39;;;;;;;0.20;0.20;;;12.80;99.90;;;;;;5074616;28;20671;-87
2022/05/18 03:05:11;;;;;;;0.20;0.20;;;12.70;99.90;;;;;;5070260;28;20486;-90
2022/05/18 03:07:37;;;;;;;0.20;0.20;;;12.70;99.90;;;;;;5077951;28;20273;-88
2022/05/18 03:10:04;;;;;;;0.20;0.20;;;12.70;99.90;;;;;;5086415;22;20508;-87
2022/05/18 03:12:29;;;;;;;0.13;0.13;;;12.70;99.90;;;;;;5048219;28;20536;-89
2022/05/18 03:14:55;;;;;;;0.10;0.10;;;12.70;99.90;;;;;;5046735;28;20581;-89
2022/05/18 03:17:20;;;;;;;0.20;0.20;;;12.70;99.90;;;;;;5058072;23;20396;-87
2022/05/18 03:19:58;;;;;;;0.20;0.20;;;12.60;99.90;;;;;;5053939;28;20186;-87
2022/05/18 03:25:08;;;;;;;0.20;0.20;;;12.70;99.90;;;;;;5064482;22;20499;-89
2022/05/18 03:27:33;;;;;;;0.20;0.20;;;12.60;99.90;;;;;;5053797;28;20445;-85
2022/05/18 03:29:59;;;;;;;0.20;0.20;;;12.60;99.90;;;;;;5050431;28;20178;-88
2022/05/18 03:32:28;;;;;;;0.10;0.10;;;12.60;99.90;;;;;;5062571;28;20383;-88
2022/05/18 03:34:54;;;;;;;0.13;0.13;;;12.60;99.90;;;;;;5047325;28;20205;-90
2022/05/18 03:37:19;;;;;;;0.20;0.20;;;12.60;99.90;;;;;;5050040;28;20413;-88
2022/05/18 03:39:45;;;;;;;0.20;0.20;;;12.60;99.90;;;;;;5051270;28;20242;-90
2022/05/18 03:42:10;;;;;;;0.20;0.20;;;12.60;99.90;;;;;;5052254;28;20250;-90
2022/05/18 03:44:36;;;;;;;0.20;0.20;;;12.50;99.90;;;;;;5050608;28;20249;-87
2022/05/18 03:47:02;;;;;;;0.20;0.20;;;12.60;99.90;;;;;;5052604;28;20216;-88
2022/05/18 03:49:27;;;;;;;0.20;0.20;;;12.60;99.90;;;;;;5032433;28;20238;-88
2022/05/18 03:51:53;;;;;;;0.20;0.20;;;12.50;99.90;;;;;;5042844;28;20175;-87
2022/05/18 03:54:18;;;;;;;0.20;0.20;;;12.60;99.90;;;;;;5044733;28;20233;-88
2022/05/18 03:56:44;;;;;;;0.20;0.20;;;12.50;99.90;;;;;;5049416;28;20682;-86
2022/05/18 03:59:09;;;;;;;0.20;0.20;;;12.50;99.90;;;;;;5047702;28;20194;-87
2022/05/18 04:01:35;;;;;;;0.20;0.20;;;12.50;99.90;;;;;;5059830;22;20352;-87
2022/05/18 04:04:07;;;;;;;0.20;0.20;;;12.50;99.90;;;;;;5068129;28;20197;-85
2022/05/18 04:06:33;;;;;;;0.20;0.20;;;12.50;99.90;;;;;;5052708;28;20193;-86
2022/05/18 04:08:59;;;;;;;0.20;0.20;;;12.50;99.90;;;;;;5056909;23;20524;-85
2022/05/18 04:11:24;;;;;;;0.20;0.20;;;12.50;99.90;;;;;;5064945;28;20190;-95
2022/05/18 04:13:51;;;;;;;0.20;0.20;;;12.50;99.90;;;;;;5050709;28;20202;-86
2022/05/18 04:16:17;;;;;;;0.20;0.20;;;12.50;99.90;;;;;;5048895;28;20186;-85
2022/05/18 04:19:07;;;;;;;0.20;0.20;;;12.50;99.90;;;;;;5041519;22;1071506;-84
2022/05/18 04:21:33;;;;;;;0.20;0.20;;;12.50;99.90;;;;;;5012351;28;20216;-87
2022/05/18 04:23:58;;;;;;;0.20;0.20;;;12.50;99.90;;;;;;5017661;28;20827;-91
2022/05/18 04:26:24;;;;;;;0.13;0.13;;;12.50;99.90;;;;;;5012622;23;21997;-88
2022/05/18 04:28:50;;;;;;;0.20;0.20;;;12.50;99.90;;;;;;5047344;23;20242;-95
2022/05/18 04:31:15;;;;;;;0.20;0.20;;;12.50;99.90;;;;;;5023801;28;20203;-87
2022/05/18 04:33:40;;;;;;;0.20;0.20;;;12.50;99.90;;;;;;5031938;28;20195;-86
2022/05/18 04:36:06;;;;;;;0.20;0.20;;;12.60;99.90;;;;;;5030099;28;20184;-85
2022/05/18 04:38:32;;;;;;;0.20;0.20;;;12.60;99.90;;;;;;5027362;28;20633;-87
2022/05/18 04:40:58;;;;;;;0.20;0.20;;;12.60;99.90;;;;;;5027125;28;20299;-84
2022/05/18 04:43:24;;;;;;;0.20;0.20;;;12.60;99.90;;;;;;5039687;23;20239;-90
2022/05/18 04:45:51;;;;;;;0.20;0.20;;;12.70;99.90;;;;;;5029260;28;20183;-85
2022/05/18 04:48:31;;;;;;;0.20;0.20;;;12.70;99.90;;;;;;5028780;28;20433;-92
2022/05/18 04:50:56;;;;;;;0.10;0.10;;;12.70;99.90;;;;;;5045564;28;20483;-87
2022/05/18 04:53:23;;;;;;;0.10;0.10;;;12.70;99.90;;;;;;5034575;28;20848;-94
2022/05/18 04:55:49;;;;;;;0.20;0.20;;;12.70;99.90;;;;;;5064110;28;20274;-88
2022/05/18 04:58:18;;;;;;;0.20;0.20;;;12.70;99.90;;;;;;5061177;28;20449;-90
2022/05/18 05:00:44;;;;;;;0.20;0.20;;;12.70;99.90;;;;;;5027936;28;20476;-93
2022/05/18 05:03:30;;;;;;;0.20;0.20;;;12.70;99.90;;;;;;5057365;28;20452;-88
2022/05/18 05:05:56;;;;;;;0.20;0.20;;;12.80;99.90;;;;;;5038306;28;20595;-89
2022/05/18 05:08:22;;;;;;;0.20;0.20;;;12.80;99.90;;;;;;5060667;22;20510;-88
2022/05/18 05:10:47;;;;;;;0.10;0.10;;;12.80;99.90;;;;;;5033833;28;20211;-91
2022/05/18 05:13:13;;;;;;;0.20;0.20;;;12.90;99.90;;;;;;5038133;28;20224;-88
2022/05/18 05:18:10;;;;;;;0.20;0.20;;;13.10;99.90;;;;;;5058239;22;20265;-90
2022/05/18 05:20:35;;;;;;;0.20;0.20;;;13.20;99.90;;;;;;5039544;28;20449;-92
2022/05/18 05:23:01;;;;;;;0.10;0.10;;;13.20;99.90;;;;;;5048859;28;20198;-90
2022/05/18 05:25:26;;;;;;;0.20;0.20;;;13.20;99.90;;;;;;5041298;28;20289;-92
2022/05/18 05:27:52;;;;;;;0.20;0.20;;;13.30;99.90;;;;;;5041088;23;20234;-94
2022/05/18 05:30:24;;;;;;;0.10;0.10;;;13.30;99.90;;;;;;5035616;28;20203;-88
2022/05/18 05:32:49;;;;;;;0.10;0.10;;;13.40;99.90;;;;;;5032088;28;20195;-88
2022/05/18 05:35:15;;;;;;;0.10;0.10;;;13.40;99.90;;;;;;5071604;23;20522;-89
2022/05/18 05:37:40;;;;;;;0.10;0.10;;;13.50;99.90;;;;;;5052112;28;20214;-87
2022/05/18 05:40:07;;;;;;;0.10;0.10;;;13.60;99.90;;;;;;5077023;28;20270;-87
2022/05/18 05:42:33;;;;;;;0.17;0.17;;;13.50;99.90;;;;;;5071548;28;20695;-94
2022/05/18 05:44:58;;;;;;;0.10;0.10;;;13.70;99.90;;;;;;5064802;22;20513;-94
2022/05/18 05:47:24;;;;;;;0.20;0.20;;;13.60;99.90;;;;;;5044456;28;20229;-90
2022/05/18 05:49:49;;;;;;;0.20;0.20;;;13.60;99.90;;;;;;5053557;28;20433;-89
2022/05/18 05:52:15;;;;;;;0.20;0.20;;;13.60;99.90;;;;;;5034759;28;20191;-91
2022/05/18 05:54:41;;;;;;;0.10;0.10;;;13.70;99.90;;;;;;5067053;22;22134;-96
2022/05/18 05:57:07;;;;;;;0.17;0.17;;;13.80;99.90;;;;;;5035700;23;20278;-91
2022/05/18 05:59:34;;;;;;;0.10;0.10;;;13.80;99.90;;;;;;5037738;28;20221;-96
2022/05/18 06:02:02;;;;;;;0.10;0.10;;;13.90;99.90;;;;;;5098833;23;20233;-95
2022/05/18 06:04:31;;;;;;;0.10;0.10;;;14.10;99.90;;;;;;5078089;28;21011;-94
2022/05/18 06:06:57;;;;;;;0.10;0.10;;;14.00;99.90;;;;;;5078557;28;20435;-96
2022/05/18 06:09:23;;;;;;;0.20;0.20;;;14.10;99.90;;;;;;5106644;23;20507;-92
2022/05/18 06:11:50;;;;;;;0.10;0.10;;;14.10;99.90;;;;;;5076626;28;20182;-96
2022/05/18 06:14:16;;;;;;;0.10;0.10;;;14.20;99.90;;;;;;5057575;23;20553;-93
2022/05/18 06:16:42;;;;;;;0.10;0.10;;;14.40;99.90;;;;;;5048142;23;20499;-88
2022/05/18 06:19:15;;;;;;;0.10;0.10;;;14.40;99.90;;;;;;5078365;23;20445;-92
2022/05/18 06:21:41;;;;;;;0.10;0.10;;;14.40;99.90;;;;;;5034938;28;20219;-91
2022/05/18 06:24:08;;;;;;;0.10;0.10;;;14.50;99.90;;;;;;5056326;23;20421;-92
2022/05/18 06:26:34;;;;;;;0.10;0.10;;;14.50;99.90;;;;;;5062228;23;20580;-88
2022/05/18 06:29:00;;;;;;;0.10;0.10;;;14.60;99.90;;;;;;5057932;28;20982;-87
2022/05/18 06:31:25;;;;;;;0.10;0.10;;;14.60;99.90;;;;;;5071809;23;20497;-91
2022/05/18 06:33:58;;;;;;;0.10;0.10;;;14.70;99.90;;;;;;5086749;22;20481;-93
2022/05/18 06:36:34;;;;;;;0.10;0.10;;;14.80;99.90;;;;;;5030040;28;20210;-89
2022/05/18 06:38:59;;;;;;;0.10;0.10;;;14.90;99.90;;;;;;5054717;28;20448;-88
2022/05/18 06:41:25;;;;;;;0.10;0.10;;;15.00;99.90;;;;;;5055133;28;21350;-93
2022/05/18 06:44:00;;;;;;;0.10;0.10;;;15.00;99.90;;;;;;5081752;23;20766;-95
2022/05/18 06:46:27;;;;;;;0.10;0.10;;;15.10;99.90;;;;;;5062178;28;20234;-93
2022/05/18 06:48:53;;;;;;;0.10;0.10;;;15.20;99.90;;;;;;5042914;23;20494;-94
2022/05/18 06:51:25;;;;;;;0.10;0.10;;;15.20;99.90;;;;;;5111792;23;21264;-96
2022/05/18 06:53:51;;;;;;;0.10;0.10;;;15.50;99.90;;;;;;5081507;28;20473;-93
2022/05/18 06:56:22;;;;;;;0.10;0.10;;;15.50;99.90;;;;;;5063286;28;20456;-95
2022/05/18 07:01:22;;;;;;;0.10;0.10;;;15.70;99.90;;;;;;5064523;23;20604;-92
2022/05/18 07:03:48;;;;;;;0.10;0.10;;;15.80;99.90;;;;;;5053757;28;20436;-93
2022/05/18 07:06:16;;;;;;;0.10;0.10;;;15.80;99.90;;;;;;5043748;28;20815;-90
2022/05/18 07:08:42;;;;;;;0.10;0.10;;;15.90;99.90;;;;;;5048021;28;20532;-88
2022/05/18 07:11:08;;;;;;;0.10;0.10;;;16.00;99.90;;;;;;5049050;28;20533;-85
2022/05/18 07:13:34;;;;;;;0.10;0.10;;;16.20;99.90;;;;;;5042407;28;20201;-91
2022/05/18 07:16:01;;;;;;;0.10;0.10;;;16.10;99.90;;;;;;5047078;28;20190;-90
2022/05/18 07:18:30;;;;;;;0.10;0.10;;;16.50;99.90;;;;;;5034122;28;20487;-85
2022/05/18 07:20:57;;;;;;;0.10;0.10;;;16.40;99.90;;;;;;5048292;28;20810;-88
2022/05/18 07:23:23;;;;;;;0.10;0.10;;;16.50;99.90;;;;;;5047187;28;20453;-83
2022/05/18 07:25:50;;;;;;;0.10;0.10;;;16.50;99.90;;;;;;5049156;28;20441;-87
2022/05/18 07:28:16;;;;;;;0.10;0.10;;;16.40;99.90;;;;;;5051935;28;20422;-85
2022/05/18 07:30:41;;;;;;;0.10;0.10;;;16.30;99.90;;;;;;5051512;28;20768;-87
2022/05/18 07:33:07;;;;;;;0.10;0.10;;;16.20;99.90;;;;;;5045727;28;20276;-85
2022/05/18 07:35:33;;;;;;;0.10;0.10;;;16.30;99.90;;;;;;5043398;28;20198;-86
2022/05/18 07:37:58;;;;;;;0.10;0.10;;;16.20;99.90;;;;;;5044819;28;20178;-85
2022/05/18 07:40:25;;;;;;;0.10;0.10;;;16.20;99.90;;;;;;5049394;28;20429;-84
2022/05/18 07:42:54;;;;;;;0.10;0.10;;;16.10;99.90;;;;;;5042084;28;20262;-85
2022/05/18 07:45:21;;;;;;;0.10;0.10;;;16.10;99.90;;;;;;5069896;28;20431;-86
2022/05/18 07:47:46;;;;;;;0.10;0.10;;;16.30;99.90;;;;;;5050668;28;20750;-87
2022/05/18 07:50:12;;;;;;;0.10;0.10;;;16.30;99.90;;;;;;5063158;28;20548;-85
2022/05/18 07:52:38;;;;;;;0.10;0.10;;;16.50;99.90;;;;;;5045332;28;20194;-85
2022/05/18 07:55:04;;;;;;;0.10;0.10;;;16.60;99.90;;;;;;5063869;28;20808;-88
2022/05/18 07:57:30;;;;;;;0.10;0.10;;;16.70;99.90;;;;;;5041225;28;20436;-89
2022/05/18 07:59:59;;;;;;;0.10;0.10;;;16.60;99.90;;;;;;5065383;28;20475;-87
2022/05/18 08:02:26;;;;;;;0.10;0.10;;;16.70;99.90;;;;;;5065681;28;20221;-88
2022/05/18 08:04:52;;;;;;;0.10;0.10;;;16.70;99.90;;;;;;5050415;28;20451;-94
2022/05/18 08:07:18;;;;;;;0.10;0.10;;;16.80;99.90;;;;;;5069090;28;20837;-90
2022/05/18 08:15:12;;;;;;;0.10;0.10;;;16.80;99.90;;;;;;5076265;28;20582;-93
2022/05/18 08:17:43;;;;;;;0.10;0.10;;;16.90;99.90;;;;;;5056596;28;20440;-94
2022/05/18 08:20:09;;;;;;;0.10;0.10;;;17.20;99.90;;;;;;5037669;28;20429;-96
2022/05/18 08:22:35;;;;;;;0.10;0.10;;;17.50;99.90;;;;;;5063551;28;20460;-94
2022/05/18 08:25:01;;;;;;;0.10;0.10;;;17.70;99.90;;;;;;5052781;28;20438;-90
2022/05/18 08:27:27;;;;;;;0.10;0.10;;;17.90;99.90;;;;;;5060867;28;20387;-91
2022/05/18 08:29:59;;;;;;;0.10;0.10;;;18.20;99.90;;;;;;5072279;28;20918;-89
2022/05/18 08:32:25;;;;;;;0.10;0.10;;;18.40;99.90;;;;;;5071102;28;20228;-89
2022/05/18 08:34:50;;;;;;;0.10;0.10;;;18.70;99.90;;;;;;5068627;28;20453;-89
2022/05/18 08:37:16;;;;;;;0.10;0.10;;;18.80;99.90;;;;;;5046452;28;20544;-88
2022/05/18 08:39:41;;;;;;;0.10;0.10;;;18.90;99.90;;;;;;5045677;28;20182;-86
2022/05/18 08:42:08;;;;;;;0.10;0.10;;;18.40;99.90;;;;;;5036613;28;20640;-96
2022/05/18 08:44:36;;;;;;;0.10;0.10;;;18.30;99.90;;;;;;5071760;28;20756;-86
2022/05/18 08:47:11;;;;;;;0.10;0.10;;;18.60;99.90;;;;;;5050072;28;20440;-93
2022/05/18 08:49:56;;;;;;;0.10;0.10;;;18.80;99.90;;;;;;5068254;28;20450;-89
2022/05/18 08:52:45;;;;;;;0.10;0.10;;;18.90;99.90;;;;;;5066067;28;20440;-88
2022/05/18 08:55:38;;;;;;;0.10;0.10;;;19.20;99.90;;;;;;5070141;28;20416;-86
2022/05/18 08:58:11;;;;;;;0.10;0.10;;;19.30;99.90;;;;;;5044701;28;20846;-87
2022/05/18 09:00:44;;;;;;;0.10;0.10;;;19.80;99.90;;;;;;5064237;28;20517;-86
2022/05/18 09:03:30;;;;;;;0.10;0.10;;;20.00;99.90;;;;;;5050886;28;20996;-84
2022/05/18 09:06:10;;;;;;;0.10;0.10;;;19.90;99.90;;;;;;5070152;28;20452;-91
2022/05/18 09:08:43;;;;;;;0.10;0.00;;;20.10;99.90;;;;;;5062750;28;20463;-87
2022/05/18 09:11:16;;;;;;;0.10;0.10;;;20.20;99.90;;;;;;5068771;28;20928;-88
2022/05/18 09:13:41;;;;;;;0.10;0.07;;;20.60;99.90;;;;;;5059890;28;20454;-86
2022/05/18 09:16:28;;;;;;;0.10;0.10;;;20.60;99.90;;;;;;5063039;28;20504;-84
2022/05/18 09:19:22;;;;;;;0.10;0.10;;;20.30;99.90;;;;;;5061082;28;20178;-85
2022/05/18 09:21:57;;;;;;;0.10;0.10;;;20.20;99.90;;;;;;5048915;28;20472;-85
2022/05/18 09:24:40;;;;;;;0.10;0.10;;;20.40;99.90;;;;;;5064639;28;20446;-85
2022/05/18 09:27:16;;;;;;;0.10;0.10;;;20.80;99.90;;;;;;5063898;28;20466;-84
2022/05/18 09:29:52;;;;;;;0.10;0.10;;;20.70;99.90;;;;;;5045512;28;20854;-86
2022/05/18 09:32:50;;;;;;;0.10;0.10;;;20.90;99.90;;;;;;5044131;28;20447;-87
2022/05/18 09:35:21;;;;;;;0.10;0.10;;;21.10;99.90;;;;;;5050366;28;20464;-83
2022/05/18 09:37:52;;;;;;;0.10;0.00;;;20.90;99.90;;;;;;5069169;28;20450;-80
2022/05/18 09:40:20;;;;;;;0.10;0.00;;;20.90;99.90;;;;;;5048410;28;20435;-92
2022/05/18 09:42:55;;;;;;;0.10;0.00;;;21.10;99.90;;;;;;5065952;28;20487;-88
2022/05/18 09:45:25;;;;;;;0.10;0.10;;;21.80;99.90;;;;;;5067846;28;20522;-88
2022/05/18 09:47:57;;;;;;;0.10;0.00;;;21.80;99.90;;;;;;5067509;28;20432;-90
2022/05/18 09:50:22;;;;;;;0.10;0.00;;;21.80;99.90;;;;;;5043087;28;20451;-86
2022/05/18 09:52:50;;;;;;;0.10;0.00;;;21.90;99.90;;;;;;5069590;28;20444;-85
2022/05/18 09:55:21;;;;;;;0.10;0.00;;;21.80;99.90;;;;;;5064896;28;20397;-87
2022/05/18 09:57:49;;;;;;;0.10;0.00;;;21.90;99.90;;;;;;5068318;28;20439;-90
2022/05/18 10:00:25;;;;;;;0.10;0.00;;;21.90;99.90;;;;;;5047810;28;20521;-91
2022/05/18 10:08:31;;;;;;;0.10;0.00;;;22.10;99.90;;;;;;5069892;28;20513;-94
2022/05/18 10:11:19;;;;;;;0.10;0.00;;;22.40;99.90;;;;;;5054298;28;20432;-88
2022/05/18 10:14:07;;;;;;;0.10;0.00;;;22.90;99.90;;;;;;5048104;28;20613;-90
2022/05/18 10:16:41;;;;;;;0.10;0.00;;;22.90;99.90;;;;;;5050479;28;20943;-89
2022/05/18 10:19:19;;;;;;;0.10;0.00;;;23.00;99.90;;;;;;5070907;28;20939;-89
2022/05/18 10:21:52;;;;;;;0.10;0.00;;;23.10;99.90;;;;;;5051429;28;20468;-88
2022/05/18 10:24:36;;;;;;;0.10;0.00;;;23.50;99.90;;;;;;5072629;28;20458;-90
2022/05/18 10:27:17;;;;;;;0.10;0.00;;;23.50;99.90;;;;;;5069369;28;20424;-93
2022/05/18 10:30:03;;;;;;;0.10;0.00;;;23.50;99.90;;;;;;5073647;28;20420;-90
2022/05/18 10:32:31;;;;;;;0.10;0.00;;;23.60;99.90;;;;;;5068625;28;20462;-92
2022/05/18 10:34:59;;;;;;;0.10;0.00;;;23.70;99.90;;;;;;5069677;28;20798;-86
2022/05/18 10:37:30;;;;;;;0.10;0.00;;;23.80;99.90;;;;;;5060825;28;20477;-87
2022/05/18 10:40:20;;;;;;;0.10;0.00;;;24.20;99.90;;;;;;5066394;28;20954;-87
2022/05/18 10:42:48;;;;;;;0.10;0.00;;;24.00;99.90;;;;;;5028278;28;20483;-84
2022/05/18 10:45:25;;;;;;;0.10;0.00;;;23.70;99.90;;;;;;5045771;28;20444;-85
2022/05/18 10:48:12;;;;;;;0.10;0.00;;;24.10;99.90;;;;;;5066163;28;20435;-89
2022/05/18 10:50:39;;;;;;;0.10;0.00;;;24.50;99.90;;;;;;5063342;28;20459;-92
2022/05/18 10:53:13;;;;;;;0.10;0.00;;;24.70;99.90;;;;;;5057953;28;20437;-87
2022/05/18 10:55:58;;;;;;;0.10;0.00;;;24.60;99.90;;;;;;5070129;28;20954;-85
2022/05/18 10:58:27;;;;;;;0.10;0.00;;;24.90;99.90;;;;;;5068926;28;20440;-87
2022/05/18 11:01:29;;;;;;;0.10;0.00;;;24.80;99.90;;;;;;5070253;28;20526;-93
2022/05/18 11:03:55;;;;;;;0.10;0.00;;;25.20;99.90;;;;;;5054543;28;20553;-89
2022/05/18 11:06:26;;;;;;;0.10;0.00;;;25.60;99.90;;;;;;5053757;28;20471;-95
2022/05/18 11:08:52;;;;;;;0.10;0.00;;;25.70;99.90;;;;;;5071572;28;20674;-88
2022/05/18 11:11:21;;;;;;;0.10;0.00;;;25.90;99.90;;;;;;5038027;28;20473;-88
2022/05/18 11:14:19;;;;;;;0.10;0.00;;;25.90;99.90;;;;;;5052165;28;20444;-83
2022/05/18 11:17:09;;;;;;;0.10;0.00;;;25.70;99.90;;;;;;5070038;28;20834;-90
2022/05/18 11:20:05;;;;;;;0.10;0.00;;;25.30;99.90;;;;;;5069804;28;21003;-91
2022/05/18 11:22:42;;;;;;;0.10;0.00;;;25.70;99.90;;;;;;5044562;28;21077;-90
2022/05/18 11:25:27;;;;;;;0.10;0.00;;;26.10;99.90;;;;;;5068612;28;20448;-83
2022/05/18 11:28:06;;;;;;;0.10;0.00;;;25.80;99.90;;;;;;5052587;28;20436;-86
2022/05/18 11:30:52;;;;;;;0.10;0.00;;;26.00;99.90;;;;;;5074619;28;20448;-88
2022/05/18 11:33:32;;;;;;;0.10;0.00;;;26.20;99.90;;;;;;5049420;28;20463;-87
2022/05/18 11:36:17;;;;;;;0.10;0.00;;;26.40;99.90;;;;;;5067968;28;20458;-86
2022/05/18 11:39:10;;;;;;;0.10;0.00;;;26.50;99.90;;;;;;5048068;28;20539;-84
2022/05/18 11:41:50;;;;;;;0.10;0.00;;;26.80;99.90;;;;;;5051655;28;20484;-83
2022/05/18 11:44:28;;;;;;;0.10;0.00;;;27.50;99.90;;;;;;5068435;28;20856;-86
2022/05/18 11:47:17;;;;;;;0.10;0.00;;;27.10;99.90;;;;;;5064849;28;20537;-89
2022/05/18 11:49:50;;;;;;;0.10;0.00;;;27.20;99.90;;;;;;5062817;28;20459;-91
2022/05/18 11:52:21;;;;;;;0.10;0.00;;;27.20;99.90;;;;;;5067729;28;20453;-91
2022/05/18 11:55:07;;;;;;;0.10;0.00;;;27.00;99.90;;;;;;5051321;28;20507;-87
2022/05/18 11:57:45;;;;;;;0.10;0.00;;;26.90;99.90;;;;;;5052335;28;20420;-83
2022/05/18 12:00:46;;;;;;;0.10;0.00;;;27.20;99.90;;;;;;5068229;28;20552;-94
2022/05/18 12:03:31;;;;;;;0.10;0.00;;;27.50;99.90;;;;;;5062377;28;20509;-89
2022/05/18 12:06:19;;;;;;;0.10;0.00;;;27.60;99.90;;;;;;5066313;28;20448;-86
2022/05/18 12:09:23;;;;;;;0.10;0.00;;;27.60;99.90;;;;;;5047249;28;20814;-84
2022/05/18 12:12:21;;;;;;;0.10;0.00;;;26.80;99.90;;;;;;5060352;28;20570;-89
2022/05/18 12:15:01;;;;;;;0.10;0.00;;;27.50;99.90;;;;;;5064212;28;20444;-88
2022/05/18 12:17:54;;;;;;;0.10;0.00;;;27.20;99.90;;;;;;5062852;28;20821;-92
2022/05/18 12:20:32;;;;;;;0.10;0.00;;;27.50;99.90;;;;;;5061634;28;21076;-90
2022/05/18 12:23:02;;;;;;;0.10;0.00;;;27.30;99.90;;;;;;5064908;28;20586;-88
2022/05/18 12:25:29;;;;;;;0.10;0.00;;;27.30;99.90;;;;;;5061702;28;20513;-85
2022/05/18 12:28:01;;;;;;;0.10;0.00;;;27.40;99.90;;;;;;5065030;28;20443;-90
2022/05/18 12:30:29;;;;;;;0.10;0.00;;;27.00;99.90;;;;;;5045797;28;20681;-85
2022/05/18 12:32:56;;;;;;;0.10;0.00;;;27.10;99.90;;;;;;5065307;28;20459;-85
2022/05/18 12:35:32;;;;;;;0.10;0.00;;;26.80;99.90;;;;;;5068882;28;20444;-83
2022/05/18 12:38:21;;;;;;;0.10;0.00;;;26.90;99.90;;;;;;5064618;28;20439;-86
2022/05/18 12:40:58;;;;;;;0.10;0.00;;;27.40;99.90;;;;;;5065848;28;20451;-83
2022/05/18 12:43:45;;;;;;;0.10;0.00;;;27.00;99.90;;;;;;5062707;28;20455;-83
2022/05/18 12:46:23;;;;;;;0.10;0.00;;;27.50;99.90;;;;;;5046725;28;20823;-88
2022/05/18 12:48:57;;;;;;;0.10;0.00;;;27.70;99.90;;;;;;5060282;28;20436;-87
2022/05/18 12:51:30;;;;;;;0.10;0.00;;;27.70;99.90;;;;;;5043141;28;20526;-87
2022/05/18 12:54:16;;;;;;;0.10;0.00;;;27.90;99.90;;;;;;5065191;28;20452;-85
2022/05/18 12:56:53;;;;;;;0.10;0.00;;;27.70;99.90;;;;;;5045619;28;20444;-84
2022/05/18 12:59:23;;;;;;;0.10;0.00;;;27.50;99.90;;;;;;5060394;28;20475;-82
2022/05/18 13:02:02;;;;;;;0.10;0.00;;;28.10;99.90;;;;;;5060725;28;20492;-83
2022/05/18 13:04:35;;;;;;;0.10;0.00;;;28.70;99.90;;;;;;5062330;28;20445;-87
2022/05/18 13:07:19;;;;;;;0.10;0.00;;;28.30;99.90;;;;;;5039669;28;20821;-85
2022/05/18 13:09:47;;;;;;;0.10;0.00;;;28.00;99.90;;;;;;5061753;28;20849;-90
2022/05/18 13:12:24;;;;;;;0.10;0.00;;;27.70;99.90;;;;;;5071796;28;20447;-94
2022/05/18 13:15:19;;;;;;;0.10;0.00;;;27.50;99.90;;;;;;5050191;28;20435;-87
2022/05/18 13:18:01;;;;;;;0.10;0.00;;;27.10;99.90;;;;;;5052115;28;20456;-88
2022/05/18 13:20:27;;;;;;;0.10;0.00;;;26.90;99.90;;;;;;5073838;28;20411;-87
2022/05/18 13:23:12;;;;;;;0.10;0.00;;;26.80;99.90;;;;;;5072531;28;20857;-85
2022/05/18 13:25:41;;;;;;;0.10;0.00;;;26.70;99.90;;;;;;5071961;28;20189;-86
2022/05/18 13:28:09;;;;;;;0.10;0.00;;;26.80;99.90;;;;;;5070640;28;21039;-86
2022/05/18 13:30:48;;;;;;;0.10;0.00;;;27.20;99.90;;;;;;5071293;28;20448;-86
2022/05/18 13:33:15;;;;;;;0.10;0.00;;;26.70;99.90;;;;;;5069543;28;20435;-90
2022/05/18 13:35:41;;;;;;;0.10;0.00;;;26.90;99.90;;;;;;5072064;28;20456;-87
2022/05/18 13:38:18;;;;;;;0.10;0.00;;;26.90;99.90;;;;;;5054089;28;20451;-86